sensor_id;sensor_type;location;lat;lon;timestamp;P1;durP1;ratioP1;P2;durP2;ratioP2
21010;SDS011;10663;42.714;23.274;2023-06-14T00:00:18;6.47;;;5.80;;
21010;SDS011;10663;42.714;23.274;2023-06-14T00:01:49;8.65;;;5.93;;
21010;SDS011;10663;42.714;23.274;2023-06-14T00:03:19;6.90;;;5.90;;
21010;SDS011;10663;42.714;23.274;2023-06-14T00:04:52;6.70;;;5.60;;
21010;SDS011;10663;42.714;23.274;2023-06-14T00:06:23;6.80;;;6.10;;
21010;SDS011;10663;42.714;23.274;2023-06-14T00:07:54;7.00;;;6.30;;
21010;SDS011;10663;42.714;23.274;2023-06-14T00:09:25;6.53;;;5.85;;
21010;SDS011;10663;42.714;23.274;2023-06-14T00:10:56;6.70;;;5.68;;
21010;SDS011;10663;42.714;23.274;2023-06-14T00:12:27;8.98;;;6.15;;
21010;SDS011;10663;42.714;23.274;2023-06-14T00:13:57;6.57;;;5.97;;
21010;SDS011;10663;42.714;23.274;2023-06-14T00:15:28;7.47;;;5.90;;
21010;SDS011;10663;42.714;23.274;2023-06-14T00:16:59;7.47;;;6.15;;
21010;SDS011;10663;42.714;23.274;2023-06-14T00:18:30;7.13;;;6.07;;
21010;SDS011;10663;42.714;23.274;2023-06-14T00:20:02;6.53;;;5.80;;
21010;SDS011;10663;42.714;23.274;2023-06-14T00:21:38;6.68;;;5.90;;
21010;SDS011;10663;42.714;23.274;2023-06-14T00:23:09;6.60;;;5.77;;
21010;SDS011;10663;42.714;23.274;2023-06-14T00:24:40;6.95;;;5.88;;
21010;SDS011;10663;42.714;23.274;2023-06-14T00:26:11;7.93;;;6.30;;
21010;SDS011;10663;42.714;23.274;2023-06-14T00:27:43;8.75;;;6.38;;
21010;SDS011;10663;42.714;23.274;2023-06-14T00:29:14;7.10;;;5.90;;
21010;SDS011;10663;42.714;23.274;2023-06-14T00:30:45;7.50;;;6.70;;
21010;SDS011;10663;42.714;23.274;2023-06-14T00:32:18;6.88;;;5.68;;
21010;SDS011;10663;42.714;23.274;2023-06-14T00:33:49;7.40;;;5.90;;
21010;SDS011;10663;42.714;23.274;2023-06-14T00:35:20;6.78;;;6.07;;
21010;SDS011;10663;42.714;23.274;2023-06-14T00:36:51;7.30;;;6.35;;
21010;SDS011;10663;42.714;23.274;2023-06-14T00:38:21;7.32;;;6.32;;
21010;SDS011;10663;42.714;23.274;2023-06-14T00:39:52;6.90;;;6.20;;
21010;SDS011;10663;42.714;23.274;2023-06-14T00:41:23;6.70;;;6.10;;
21010;SDS011;10663;42.714;23.274;2023-06-14T00:42:54;6.75;;;6.13;;
21010;SDS011;10663;42.714;23.274;2023-06-14T00:44:25;6.73;;;6.10;;
21010;SDS011;10663;42.714;23.274;2023-06-14T00:45:56;7.30;;;6.60;;
21010;SDS011;10663;42.714;23.274;2023-06-14T00:47:27;7.13;;;6.15;;
21010;SDS011;10663;42.714;23.274;2023-06-14T00:48:58;10.63;;;6.38;;
21010;SDS011;10663;42.714;23.274;2023-06-14T00:50:31;7.13;;;5.90;;
21010;SDS011;10663;42.714;23.274;2023-06-14T00:52:03;7.13;;;6.43;;
21010;SDS011;10663;42.714;23.274;2023-06-14T00:53:34;6.93;;;6.22;;
21010;SDS011;10663;42.714;23.274;2023-06-14T00:55:06;7.10;;;6.40;;
21010;SDS011;10663;42.714;23.274;2023-06-14T00:56:37;7.73;;;6.20;;
21010;SDS011;10663;42.714;23.274;2023-06-14T00:58:08;7.00;;;6.38;;
21010;SDS011;10663;42.714;23.274;2023-06-14T00:59:44;7.03;;;6.10;;
21010;SDS011;10663;42.714;23.274;2023-06-14T01:01:16;7.72;;;7.03;;
21010;SDS011;10663;42.714;23.274;2023-06-14T01:02:47;8.20;;;6.35;;
21010;SDS011;10663;42.714;23.274;2023-06-14T01:04:19;7.22;;;6.50;;
21010;SDS011;10663;42.714;23.274;2023-06-14T01:06:04;7.50;;;6.72;;
21010;SDS011;10663;42.714;23.274;2023-06-14T01:09:32;10.70;;;7.78;;
21010;SDS011;10663;42.714;23.274;2023-06-14T01:11:08;8.98;;;7.30;;
21010;SDS011;10663;42.714;23.274;2023-06-14T01:12:58;9.00;;;7.32;;
21010;SDS011;10663;42.714;23.274;2023-06-14T01:14:35;8.00;;;7.30;;
21010;SDS011;10663;42.714;23.274;2023-06-14T01:16:07;8.15;;;7.43;;
21010;SDS011;10663;42.714;23.274;2023-06-14T01:17:39;8.55;;;7.75;;
21010;SDS011;10663;42.714;23.274;2023-06-14T01:19:14;8.52;;;7.63;;
21010;SDS011;10663;42.714;23.274;2023-06-14T01:20:46;8.70;;;7.80;;
21010;SDS011;10663;42.714;23.274;2023-06-14T01:22:20;8.45;;;7.65;;
21010;SDS011;10663;42.714;23.274;2023-06-14T01:23:52;8.30;;;7.50;;
21010;SDS011;10663;42.714;23.274;2023-06-14T01:25:23;9.40;;;7.40;;
21010;SDS011;10663;42.714;23.274;2023-06-14T01:26:55;8.25;;;7.45;;
21010;SDS011;10663;42.714;23.274;2023-06-14T01:28:27;8.55;;;7.65;;
21010;SDS011;10663;42.714;23.274;2023-06-14T01:30:02;8.98;;;8.07;;
21010;SDS011;10663;42.714;23.274;2023-06-14T01:31:33;8.05;;;7.25;;
21010;SDS011;10663;42.714;23.274;2023-06-14T01:33:12;8.60;;;7.80;;
21010;SDS011;10663;42.714;23.274;2023-06-14T01:34:48;8.75;;;7.95;;
21010;SDS011;10663;42.714;23.274;2023-06-14T01:36:19;8.75;;;7.93;;
21010;SDS011;10663;42.714;23.274;2023-06-14T01:37:51;8.43;;;7.63;;
21010;SDS011;10663;42.714;23.274;2023-06-14T01:39:23;8.82;;;7.95;;
21010;SDS011;10663;42.714;23.274;2023-06-14T01:40:55;9.05;;;8.13;;
21010;SDS011;10663;42.714;23.274;2023-06-14T01:42:29;9.00;;;8.13;;
21010;SDS011;10663;42.714;23.274;2023-06-14T01:44:01;10.23;;;8.77;;
21010;SDS011;10663;42.714;23.274;2023-06-14T01:45:33;9.13;;;8.20;;
21010;SDS011;10663;42.714;23.274;2023-06-14T01:47:06;9.00;;;8.10;;
21010;SDS011;10663;42.714;23.274;2023-06-14T01:48:37;9.73;;;8.73;;
21010;SDS011;10663;42.714;23.274;2023-06-14T01:50:08;10.02;;;9.10;;
21010;SDS011;10663;42.714;23.274;2023-06-14T01:51:40;9.60;;;8.60;;
21010;SDS011;10663;42.714;23.274;2023-06-14T01:53:13;9.32;;;8.43;;
21010;SDS011;10663;42.714;23.274;2023-06-14T01:54:44;9.23;;;8.32;;
21010;SDS011;10663;42.714;23.274;2023-06-14T01:56:15;9.45;;;8.50;;
21010;SDS011;10663;42.714;23.274;2023-06-14T01:57:46;9.25;;;8.35;;
21010;SDS011;10663;42.714;23.274;2023-06-14T01:59:17;9.38;;;7.65;;
21010;SDS011;10663;42.714;23.274;2023-06-14T02:00:48;9.35;;;8.45;;
21010;SDS011;10663;42.714;23.274;2023-06-14T02:02:19;8.32;;;7.63;;
21010;SDS011;10663;42.714;23.274;2023-06-14T02:03:50;8.88;;;8.00;;
21010;SDS011;10663;42.714;23.274;2023-06-14T02:05:21;9.05;;;7.75;;
21010;SDS011;10663;42.714;23.274;2023-06-14T02:06:52;9.20;;;8.30;;
21010;SDS011;10663;42.714;23.274;2023-06-14T02:08:23;8.70;;;7.90;;
21010;SDS011;10663;42.714;23.274;2023-06-14T02:09:54;10.43;;;8.00;;
21010;SDS011;10663;42.714;23.274;2023-06-14T02:11:27;9.30;;;8.30;;
21010;SDS011;10663;42.714;23.274;2023-06-14T02:12:58;9.30;;;8.37;;
21010;SDS011;10663;42.714;23.274;2023-06-14T02:14:28;9.38;;;8.32;;
21010;SDS011;10663;42.714;23.274;2023-06-14T02:16:00;9.13;;;8.23;;
21010;SDS011;10663;42.714;23.274;2023-06-14T02:17:32;9.13;;;8.15;;
21010;SDS011;10663;42.714;23.274;2023-06-14T02:19:03;8.88;;;7.97;;
21010;SDS011;10663;42.714;23.274;2023-06-14T02:20:35;8.73;;;7.78;;
21010;SDS011;10663;42.714;23.274;2023-06-14T02:22:06;9.13;;;7.88;;
21010;SDS011;10663;42.714;23.274;2023-06-14T02:23:38;9.02;;;7.75;;
21010;SDS011;10663;42.714;23.274;2023-06-14T02:25:10;8.65;;;7.80;;
21010;SDS011;10663;42.714;23.274;2023-06-14T02:26:41;9.15;;;8.13;;
21010;SDS011;10663;42.714;23.274;2023-06-14T02:28:12;7.85;;;7.15;;
21010;SDS011;10663;42.714;23.274;2023-06-14T02:29:43;8.70;;;7.80;;
21010;SDS011;10663;42.714;23.274;2023-06-14T02:31:14;7.95;;;7.22;;
21010;SDS011;10663;42.714;23.274;2023-06-14T02:32:45;7.75;;;6.95;;
21010;SDS011;10663;42.714;23.274;2023-06-14T02:34:17;8.23;;;7.53;;
21010;SDS011;10663;42.714;23.274;2023-06-14T02:35:48;9.73;;;7.53;;
21010;SDS011;10663;42.714;23.274;2023-06-14T02:37:19;8.05;;;7.28;;
21010;SDS011;10663;42.714;23.274;2023-06-14T02:38:50;7.85;;;7.05;;
21010;SDS011;10663;42.714;23.274;2023-06-14T02:40:22;8.20;;;7.40;;
21010;SDS011;10663;42.714;23.274;2023-06-14T02:41:54;7.90;;;7.13;;
21010;SDS011;10663;42.714;23.274;2023-06-14T02:43:24;8.27;;;7.47;;
21010;SDS011;10663;42.714;23.274;2023-06-14T02:44:55;8.38;;;7.50;;
21010;SDS011;10663;42.714;23.274;2023-06-14T02:46:26;8.18;;;7.30;;
21010;SDS011;10663;42.714;23.274;2023-06-14T02:47:57;7.38;;;6.60;;
21010;SDS011;10663;42.714;23.274;2023-06-14T02:49:28;8.93;;;7.90;;
21010;SDS011;10663;42.714;23.274;2023-06-14T02:50:59;8.38;;;7.25;;
21010;SDS011;10663;42.714;23.274;2023-06-14T02:52:30;7.13;;;6.50;;
21010;SDS011;10663;42.714;23.274;2023-06-14T02:54:03;7.68;;;6.88;;
21010;SDS011;10663;42.714;23.274;2023-06-14T02:55:34;7.50;;;6.57;;
21010;SDS011;10663;42.714;23.274;2023-06-14T02:57:10;7.55;;;6.53;;
21010;SDS011;10663;42.714;23.274;2023-06-14T02:58:42;8.93;;;6.88;;
21010;SDS011;10663;42.714;23.274;2023-06-14T03:00:14;7.43;;;6.63;;
21010;SDS011;10663;42.714;23.274;2023-06-14T03:01:46;7.73;;;6.77;;
21010;SDS011;10663;42.714;23.274;2023-06-14T03:03:18;8.60;;;7.47;;
21010;SDS011;10663;42.714;23.274;2023-06-14T03:04:55;8.55;;;7.13;;
21010;SDS011;10663;42.714;23.274;2023-06-14T03:06:33;10.05;;;8.18;;
21010;SDS011;10663;42.714;23.274;2023-06-14T03:08:04;8.35;;;7.53;;
21010;SDS011;10663;42.714;23.274;2023-06-14T03:09:36;8.00;;;7.13;;
21010;SDS011;10663;42.714;23.274;2023-06-14T03:11:08;7.80;;;6.93;;
21010;SDS011;10663;42.714;23.274;2023-06-14T03:12:40;7.80;;;7.07;;
21010;SDS011;10663;42.714;23.274;2023-06-14T03:14:12;7.05;;;6.35;;
21010;SDS011;10663;42.714;23.274;2023-06-14T03:15:45;7.32;;;6.55;;
21010;SDS011;10663;42.714;23.274;2023-06-14T03:17:16;8.60;;;7.10;;
21010;SDS011;10663;42.714;23.274;2023-06-14T03:18:51;8.57;;;6.97;;
21010;SDS011;10663;42.714;23.274;2023-06-14T03:20:23;8.93;;;7.20;;
21010;SDS011;10663;42.714;23.274;2023-06-14T03:21:54;8.40;;;6.78;;
21010;SDS011;10663;42.714;23.274;2023-06-14T03:23:28;7.43;;;6.63;;
21010;SDS011;10663;42.714;23.274;2023-06-14T03:24:59;8.25;;;7.35;;
21010;SDS011;10663;42.714;23.274;2023-06-14T03:26:31;8.40;;;7.35;;
21010;SDS011;10663;42.714;23.274;2023-06-14T03:28:05;9.48;;;7.57;;
21010;SDS011;10663;42.714;23.274;2023-06-14T03:29:36;8.43;;;7.20;;
21010;SDS011;10663;42.714;23.274;2023-06-14T03:31:07;9.07;;;8.18;;
21010;SDS011;10663;42.714;23.274;2023-06-14T03:32:40;8.15;;;6.80;;
21010;SDS011;10663;42.714;23.274;2023-06-14T03:34:12;7.95;;;7.07;;
21010;SDS011;10663;42.714;23.274;2023-06-14T03:35:43;8.20;;;7.18;;
21010;SDS011;10663;42.714;23.274;2023-06-14T03:37:18;8.13;;;6.70;;
21010;SDS011;10663;42.714;23.274;2023-06-14T03:38:51;7.43;;;6.57;;
21010;SDS011;10663;42.714;23.274;2023-06-14T03:40:22;7.60;;;6.80;;
21010;SDS011;10663;42.714;23.274;2023-06-14T03:41:59;7.82;;;7.03;;
21010;SDS011;10663;42.714;23.274;2023-06-14T03:43:30;8.10;;;7.30;;
21010;SDS011;10663;42.714;23.274;2023-06-14T03:45:01;7.68;;;6.65;;
21010;SDS011;10663;42.714;23.274;2023-06-14T03:46:32;8.48;;;6.60;;
21010;SDS011;10663;42.714;23.274;2023-06-14T03:48:03;7.45;;;6.65;;
21010;SDS011;10663;42.714;23.274;2023-06-14T03:49:36;7.90;;;7.20;;
21010;SDS011;10663;42.714;23.274;2023-06-14T03:51:07;8.10;;;7.30;;
21010;SDS011;10663;42.714;23.274;2023-06-14T03:52:38;6.97;;;6.28;;
21010;SDS011;10663;42.714;23.274;2023-06-14T03:54:09;6.85;;;6.25;;
21010;SDS011;10663;42.714;23.274;2023-06-14T03:55:41;7.68;;;6.32;;
21010;SDS011;10663;42.714;23.274;2023-06-14T03:57:12;8.48;;;6.40;;
21010;SDS011;10663;42.714;23.274;2023-06-14T03:58:43;7.70;;;6.70;;
21010;SDS011;10663;42.714;23.274;2023-06-14T04:00:14;8.90;;;7.00;;
21010;SDS011;10663;42.714;23.274;2023-06-14T04:01:45;9.35;;;6.60;;
21010;SDS011;10663;42.714;23.274;2023-06-14T04:03:21;6.80;;;6.07;;
21010;SDS011;10663;42.714;23.274;2023-06-14T04:05:00;8.98;;;6.10;;
21010;SDS011;10663;42.714;23.274;2023-06-14T04:06:32;8.05;;;6.03;;
21010;SDS011;10663;42.714;23.274;2023-06-14T04:08:03;8.48;;;5.90;;
21010;SDS011;10663;42.714;23.274;2023-06-14T04:09:36;7.93;;;6.10;;
21010;SDS011;10663;42.714;23.274;2023-06-14T04:11:07;7.57;;;5.55;;
21010;SDS011;10663;42.714;23.274;2023-06-14T04:12:38;7.25;;;5.70;;
21010;SDS011;10663;42.714;23.274;2023-06-14T04:14:09;8.27;;;6.13;;
21010;SDS011;10663;42.714;23.274;2023-06-14T04:15:40;7.60;;;6.23;;
21010;SDS011;10663;42.714;23.274;2023-06-14T04:17:12;7.00;;;5.77;;
21010;SDS011;10663;42.714;23.274;2023-06-14T04:18:47;7.03;;;5.70;;
21010;SDS011;10663;42.714;23.274;2023-06-14T04:20:22;10.43;;;6.05;;
21010;SDS011;10663;42.714;23.274;2023-06-14T04:21:55;9.65;;;6.30;;
21010;SDS011;10663;42.714;23.274;2023-06-14T04:23:26;7.18;;;5.72;;
21010;SDS011;10663;42.714;23.274;2023-06-14T04:24:59;8.57;;;5.63;;
21010;SDS011;10663;42.714;23.274;2023-06-14T04:26:31;7.80;;;7.00;;
21010;SDS011;10663;42.714;23.274;2023-06-14T04:28:03;8.10;;;6.35;;
21010;SDS011;10663;42.714;23.274;2023-06-14T04:29:34;6.97;;;6.20;;
21010;SDS011;10663;42.714;23.274;2023-06-14T04:31:09;6.85;;;5.90;;
21010;SDS011;10663;42.714;23.274;2023-06-14T04:32:40;8.57;;;6.13;;
21010;SDS011;10663;42.714;23.274;2023-06-14T04:34:14;6.50;;;5.70;;
21010;SDS011;10663;42.714;23.274;2023-06-14T04:35:54;7.30;;;5.78;;
21010;SDS011;10663;42.714;23.274;2023-06-14T04:37:27;6.53;;;5.85;;
21010;SDS011;10663;42.714;23.274;2023-06-14T04:39:03;6.80;;;5.82;;
21010;SDS011;10663;42.714;23.274;2023-06-14T04:40:35;6.95;;;6.03;;
21010;SDS011;10663;42.714;23.274;2023-06-14T04:42:13;6.15;;;5.60;;
21010;SDS011;10663;42.714;23.274;2023-06-14T04:43:50;10.10;;;6.47;;
21010;SDS011;10663;42.714;23.274;2023-06-14T04:45:24;7.82;;;5.88;;
21010;SDS011;10663;42.714;23.274;2023-06-14T04:47:03;7.45;;;5.30;;
21010;SDS011;10663;42.714;23.274;2023-06-14T04:48:34;8.20;;;5.70;;
21010;SDS011;10663;42.714;23.274;2023-06-14T04:50:05;6.80;;;5.70;;
21010;SDS011;10663;42.714;23.274;2023-06-14T04:51:36;6.30;;;5.70;;
21010;SDS011;10663;42.714;23.274;2023-06-14T04:53:07;6.32;;;5.68;;
21010;SDS011;10663;42.714;23.274;2023-06-14T04:54:40;6.57;;;5.55;;
21010;SDS011;10663;42.714;23.274;2023-06-14T04:56:15;6.85;;;5.50;;
21010;SDS011;10663;42.714;23.274;2023-06-14T04:57:47;6.47;;;5.43;;
21010;SDS011;10663;42.714;23.274;2023-06-14T04:59:19;6.93;;;5.90;;
21010;SDS011;10663;42.714;23.274;2023-06-14T05:00:50;6.68;;;5.90;;
21010;SDS011;10663;42.714;23.274;2023-06-14T05:02:21;6.30;;;5.60;;
21010;SDS011;10663;42.714;23.274;2023-06-14T05:03:53;7.30;;;6.05;;
21010;SDS011;10663;42.714;23.274;2023-06-14T05:05:25;7.68;;;5.57;;
21010;SDS011;10663;42.714;23.274;2023-06-14T05:06:56;7.13;;;6.43;;
21010;SDS011;10663;42.714;23.274;2023-06-14T05:08:27;7.97;;;6.22;;
21010;SDS011;10663;42.714;23.274;2023-06-14T05:09:58;6.53;;;5.90;;
21010;SDS011;10663;42.714;23.274;2023-06-14T05:11:30;8.57;;;6.05;;
21010;SDS011;10663;42.714;23.274;2023-06-14T05:13:01;6.75;;;6.07;;
21010;SDS011;10663;42.714;23.274;2023-06-14T05:14:32;6.00;;;5.38;;
21010;SDS011;10663;42.714;23.274;2023-06-14T05:16:05;8.77;;;6.22;;
21010;SDS011;10663;42.714;23.274;2023-06-14T05:17:37;9.13;;;6.35;;
21010;SDS011;10663;42.714;23.274;2023-06-14T05:19:08;7.85;;;6.25;;
21010;SDS011;10663;42.714;23.274;2023-06-14T05:20:40;7.93;;;6.63;;
21010;SDS011;10663;42.714;23.274;2023-06-14T05:22:12;8.40;;;6.35;;
21010;SDS011;10663;42.714;23.274;2023-06-14T05:23:43;8.17;;;6.73;;
21010;SDS011;10663;42.714;23.274;2023-06-14T05:25:15;7.63;;;6.65;;
21010;SDS011;10663;42.714;23.274;2023-06-14T05:26:46;10.07;;;7.18;;
21010;SDS011;10663;42.714;23.274;2023-06-14T05:28:17;8.32;;;7.45;;
21010;SDS011;10663;42.714;23.274;2023-06-14T05:29:48;10.95;;;7.45;;
21010;SDS011;10663;42.714;23.274;2023-06-14T05:31:19;8.55;;;6.95;;
21010;SDS011;10663;42.714;23.274;2023-06-14T05:32:50;8.35;;;7.47;;
21010;SDS011;10663;42.714;23.274;2023-06-14T05:34:21;9.10;;;7.43;;
21010;SDS011;10663;42.714;23.274;2023-06-14T05:35:51;9.47;;;7.33;;
21010;SDS011;10663;42.714;23.274;2023-06-14T05:37:22;9.88;;;7.72;;
21010;SDS011;10663;42.714;23.274;2023-06-14T05:38:53;8.30;;;7.50;;
21010;SDS011;10663;42.714;23.274;2023-06-14T05:40:30;8.68;;;7.82;;
21010;SDS011;10663;42.714;23.274;2023-06-14T05:42:01;8.60;;;7.70;;
21010;SDS011;10663;42.714;23.274;2023-06-14T05:43:31;8.68;;;7.63;;
21010;SDS011;10663;42.714;23.274;2023-06-14T05:45:02;9.03;;;8.03;;
21010;SDS011;10663;42.714;23.274;2023-06-14T05:46:33;8.73;;;7.83;;
21010;SDS011;10663;42.714;23.274;2023-06-14T05:48:04;8.60;;;7.32;;
21010;SDS011;10663;42.714;23.274;2023-06-14T05:49:35;9.52;;;8.50;;
21010;SDS011;10663;42.714;23.274;2023-06-14T05:51:06;9.40;;;8.27;;
21010;SDS011;10663;42.714;23.274;2023-06-14T05:52:39;9.13;;;8.07;;
21010;SDS011;10663;42.714;23.274;2023-06-14T05:54:10;9.67;;;7.90;;
21010;SDS011;10663;42.714;23.274;2023-06-14T05:55:40;9.43;;;8.45;;
21010;SDS011;10663;42.714;23.274;2023-06-14T05:57:11;9.82;;;8.70;;
21010;SDS011;10663;42.714;23.274;2023-06-14T05:58:42;10.27;;;8.95;;
21010;SDS011;10663;42.714;23.274;2023-06-14T06:00:13;12.93;;;9.33;;
21010;SDS011;10663;42.714;23.274;2023-06-14T06:01:48;10.75;;;8.30;;
21010;SDS011;10663;42.714;23.274;2023-06-14T06:03:19;10.00;;;9.00;;
21010;SDS011;10663;42.714;23.274;2023-06-14T06:04:51;11.60;;;9.85;;
21010;SDS011;10663;42.714;23.274;2023-06-14T06:06:22;10.90;;;9.80;;
21010;SDS011;10663;42.714;23.274;2023-06-14T06:07:53;10.60;;;9.50;;
21010;SDS011;10663;42.714;23.274;2023-06-14T06:09:24;11.15;;;9.18;;
21010;SDS011;10663;42.714;23.274;2023-06-14T06:10:55;10.63;;;9.55;;
21010;SDS011;10663;42.714;23.274;2023-06-14T06:12:26;11.45;;;8.95;;
21010;SDS011;10663;42.714;23.274;2023-06-14T06:13:57;10.83;;;8.40;;
21010;SDS011;10663;42.714;23.274;2023-06-14T06:15:28;10.57;;;7.95;;
21010;SDS011;10663;42.714;23.274;2023-06-14T06:16:59;8.45;;;7.65;;
21010;SDS011;10663;42.714;23.274;2023-06-14T06:18:30;10.00;;;8.05;;
21010;SDS011;10663;42.714;23.274;2023-06-14T06:20:01;9.75;;;8.05;;
21010;SDS011;10663;42.714;23.274;2023-06-14T06:21:32;9.27;;;8.02;;
21010;SDS011;10663;42.714;23.274;2023-06-14T06:23:03;11.45;;;9.00;;
21010;SDS011;10663;42.714;23.274;2023-06-14T06:24:34;10.23;;;8.30;;
21010;SDS011;10663;42.714;23.274;2023-06-14T06:26:05;9.88;;;8.45;;
21010;SDS011;10663;42.714;23.274;2023-06-14T06:27:36;9.97;;;8.13;;
21010;SDS011;10663;42.714;23.274;2023-06-14T06:29:08;9.65;;;7.95;;
21010;SDS011;10663;42.714;23.274;2023-06-14T06:30:39;10.60;;;8.88;;
21010;SDS011;10663;42.714;23.274;2023-06-14T06:32:09;8.50;;;7.70;;
21010;SDS011;10663;42.714;23.274;2023-06-14T06:33:40;9.93;;;8.93;;
21010;SDS011;10663;42.714;23.274;2023-06-14T06:35:11;10.45;;;8.55;;
21010;SDS011;10663;42.714;23.274;2023-06-14T06:36:44;9.82;;;8.55;;
21010;SDS011;10663;42.714;23.274;2023-06-14T06:38:15;9.98;;;8.85;;
21010;SDS011;10663;42.714;23.274;2023-06-14T06:39:46;9.77;;;8.15;;
21010;SDS011;10663;42.714;23.274;2023-06-14T06:41:18;9.95;;;7.82;;
21010;SDS011;10663;42.714;23.274;2023-06-14T06:42:49;8.88;;;7.97;;
21010;SDS011;10663;42.714;23.274;2023-06-14T06:44:22;10.23;;;8.65;;
21010;SDS011;10663;42.714;23.274;2023-06-14T06:45:54;9.70;;;8.13;;
21010;SDS011;10663;42.714;23.274;2023-06-14T06:47:25;8.90;;;8.00;;
21010;SDS011;10663;42.714;23.274;2023-06-14T06:48:56;11.70;;;9.00;;
21010;SDS011;10663;42.714;23.274;2023-06-14T06:50:27;10.03;;;8.90;;
21010;SDS011;10663;42.714;23.274;2023-06-14T06:51:59;10.32;;;9.20;;
21010;SDS011;10663;42.714;23.274;2023-06-14T06:53:36;10.15;;;9.02;;
21010;SDS011;10663;42.714;23.274;2023-06-14T06:55:07;11.17;;;9.23;;
21010;SDS011;10663;42.714;23.274;2023-06-14T06:56:39;10.30;;;9.30;;
21010;SDS011;10663;42.714;23.274;2023-06-14T06:58:10;11.63;;;10.43;;
21010;SDS011;10663;42.714;23.274;2023-06-14T06:59:40;11.57;;;10.38;;
21010;SDS011;10663;42.714;23.274;2023-06-14T07:01:12;10.43;;;9.10;;
21010;SDS011;10663;42.714;23.274;2023-06-14T07:02:43;10.40;;;9.00;;
21010;SDS011;10663;42.714;23.274;2023-06-14T07:04:14;13.65;;;10.52;;
21010;SDS011;10663;42.714;23.274;2023-06-14T07:05:46;10.95;;;9.75;;
21010;SDS011;10663;42.714;23.274;2023-06-14T07:07:17;11.90;;;10.15;;
21010;SDS011;10663;42.714;23.274;2023-06-14T07:08:47;11.52;;;10.15;;
21010;SDS011;10663;42.714;23.274;2023-06-14T07:10:21;11.85;;;10.05;;
21010;SDS011;10663;42.714;23.274;2023-06-14T07:11:52;11.07;;;9.88;;
21010;SDS011;10663;42.714;23.274;2023-06-14T07:13:23;11.45;;;10.10;;
21010;SDS011;10663;42.714;23.274;2023-06-14T07:14:54;12.60;;;10.98;;
21010;SDS011;10663;42.714;23.274;2023-06-14T07:16:25;12.33;;;10.13;;
21010;SDS011;10663;42.714;23.274;2023-06-14T07:17:56;12.00;;;10.88;;
21010;SDS011;10663;42.714;23.274;2023-06-14T07:19:30;15.93;;;12.75;;
21010;SDS011;10663;42.714;23.274;2023-06-14T07:21:01;12.80;;;10.88;;
21010;SDS011;10663;42.714;23.274;2023-06-14T07:22:32;13.02;;;11.38;;
21010;SDS011;10663;42.714;23.274;2023-06-14T07:24:04;12.50;;;11.20;;
21010;SDS011;10663;42.714;23.274;2023-06-14T07:25:36;14.02;;;11.10;;
21010;SDS011;10663;42.714;23.274;2023-06-14T07:27:07;10.97;;;9.87;;
21010;SDS011;10663;42.714;23.274;2023-06-14T07:28:38;19.85;;;16.33;;
21010;SDS011;10663;42.714;23.274;2023-06-14T07:30:09;11.70;;;10.50;;
21010;SDS011;10663;42.714;23.274;2023-06-14T07:31:40;14.60;;;12.18;;
21010;SDS011;10663;42.714;23.274;2023-06-14T07:33:11;18.42;;;14.63;;
21010;SDS011;10663;42.714;23.274;2023-06-14T07:34:42;10.52;;;9.43;;
21010;SDS011;10663;42.714;23.274;2023-06-14T07:36:13;14.37;;;11.30;;
21010;SDS011;10663;42.714;23.274;2023-06-14T07:37:44;12.20;;;10.85;;
21010;SDS011;10663;42.714;23.274;2023-06-14T07:39:17;13.30;;;11.73;;
21010;SDS011;10663;42.714;23.274;2023-06-14T07:40:48;12.40;;;10.23;;
21010;SDS011;10663;42.714;23.274;2023-06-14T07:42:19;11.30;;;9.55;;
21010;SDS011;10663;42.714;23.274;2023-06-14T07:43:50;12.88;;;10.65;;
21010;SDS011;10663;42.714;23.274;2023-06-14T07:45:21;17.63;;;13.50;;
21010;SDS011;10663;42.714;23.274;2023-06-14T07:46:52;16.50;;;12.52;;
21010;SDS011;10663;42.714;23.274;2023-06-14T07:48:24;13.73;;;12.32;;
21010;SDS011;10663;42.714;23.274;2023-06-14T07:49:56;13.45;;;12.05;;
21010;SDS011;10663;42.714;23.274;2023-06-14T07:51:27;13.68;;;11.98;;
21010;SDS011;10663;42.714;23.274;2023-06-14T07:52:58;13.50;;;11.43;;
21010;SDS011;10663;42.714;23.274;2023-06-14T07:54:29;13.55;;;11.60;;
21010;SDS011;10663;42.714;23.274;2023-06-14T07:56:00;14.55;;;11.57;;
21010;SDS011;10663;42.714;23.274;2023-06-14T07:57:33;12.33;;;10.80;;
21010;SDS011;10663;42.714;23.274;2023-06-14T07:59:05;13.23;;;11.80;;
21010;SDS011;10663;42.714;23.274;2023-06-14T08:00:36;14.33;;;12.93;;
21010;SDS011;10663;42.714;23.274;2023-06-14T08:02:07;14.38;;;11.90;;
21010;SDS011;10663;42.714;23.274;2023-06-14T08:03:38;12.15;;;10.90;;
21010;SDS011;10663;42.714;23.274;2023-06-14T08:05:09;15.65;;;11.57;;
21010;SDS011;10663;42.714;23.274;2023-06-14T08:06:43;14.20;;;11.85;;
21010;SDS011;10663;42.714;23.274;2023-06-14T08:08:18;12.30;;;11.07;;
21010;SDS011;10663;42.714;23.274;2023-06-14T08:09:51;11.32;;;10.02;;
21010;SDS011;10663;42.714;23.274;2023-06-14T08:11:22;12.18;;;10.52;;
21010;SDS011;10663;42.714;23.274;2023-06-14T08:12:54;12.35;;;11.05;;
21010;SDS011;10663;42.714;23.274;2023-06-14T08:14:26;12.38;;;11.18;;
21010;SDS011;10663;42.714;23.274;2023-06-14T08:15:57;12.68;;;11.05;;
21010;SDS011;10663;42.714;23.274;2023-06-14T08:17:28;12.98;;;11.50;;
21010;SDS011;10663;42.714;23.274;2023-06-14T08:18:59;13.60;;;11.65;;
21010;SDS011;10663;42.714;23.274;2023-06-14T08:20:30;14.38;;;12.48;;
21010;SDS011;10663;42.714;23.274;2023-06-14T08:22:02;14.82;;;13.25;;
21010;SDS011;10663;42.714;23.274;2023-06-14T08:23:34;13.05;;;11.75;;
21010;SDS011;10663;42.714;23.274;2023-06-14T08:25:06;14.45;;;13.02;;
21010;SDS011;10663;42.714;23.274;2023-06-14T08:26:38;12.32;;;11.13;;
21010;SDS011;10663;42.714;23.274;2023-06-14T08:28:09;14.48;;;12.98;;
21010;SDS011;10663;42.714;23.274;2023-06-14T08:29:40;13.38;;;12.05;;
21010;SDS011;10663;42.714;23.274;2023-06-14T08:31:12;14.45;;;12.93;;
21010;SDS011;10663;42.714;23.274;2023-06-14T08:32:43;13.75;;;12.23;;
21010;SDS011;10663;42.714;23.274;2023-06-14T08:34:14;13.70;;;12.30;;
21010;SDS011;10663;42.714;23.274;2023-06-14T08:35:45;15.10;;;13.50;;
21010;SDS011;10663;42.714;23.274;2023-06-14T08:37:16;14.95;;;13.30;;
21010;SDS011;10663;42.714;23.274;2023-06-14T08:38:47;14.52;;;13.13;;
21010;SDS011;10663;42.714;23.274;2023-06-14T08:40:19;14.30;;;12.80;;
21010;SDS011;10663;42.714;23.274;2023-06-14T08:41:51;14.25;;;12.75;;
21010;SDS011;10663;42.714;23.274;2023-06-14T08:43:23;13.30;;;11.23;;
21010;SDS011;10663;42.714;23.274;2023-06-14T08:44:53;12.98;;;11.45;;
21010;SDS011;10663;42.714;23.274;2023-06-14T08:46:25;13.17;;;11.80;;
21010;SDS011;10663;42.714;23.274;2023-06-14T08:47:58;13.90;;;12.40;;
21010;SDS011;10663;42.714;23.274;2023-06-14T08:49:30;13.85;;;12.45;;
21010;SDS011;10663;42.714;23.274;2023-06-14T08:51:01;12.50;;;11.23;;
21010;SDS011;10663;42.714;23.274;2023-06-14T08:52:35;14.18;;;12.25;;
21010;SDS011;10663;42.714;23.274;2023-06-14T08:54:11;12.70;;;11.43;;
21010;SDS011;10663;42.714;23.274;2023-06-14T08:55:44;13.05;;;11.85;;
21010;SDS011;10663;42.714;23.274;2023-06-14T08:57:15;14.98;;;11.43;;
21010;SDS011;10663;42.714;23.274;2023-06-14T08:58:47;13.37;;;11.47;;
21010;SDS011;10663;42.714;23.274;2023-06-14T09:00:20;11.98;;;10.40;;
21010;SDS011;10663;42.714;23.274;2023-06-14T09:01:51;11.60;;;10.50;;
21010;SDS011;10663;42.714;23.274;2023-06-14T09:03:25;10.98;;;9.88;;